Gray Hawk, Kentucky
Current Conditions -  °F | °C
As of 10:53 PM on Wednesday 22 Oct 2014 (Local Time) from KLOZ Reporting Station
Overcast Overcast  
Wind Chill: 49°   Ceiling: 3100
Heat Index: 49°   Visibility: 10mi
Dew Point: 42°   Wind: 3mph
Humidity: 77%   Direction: 20°NNE
Pressure: 30.24"   Gusts: NA
Location:  37.4°N, 83.94°W
Report Text: KLOZ 230253Z AUTO 02003KT 10SM OVC031 09/06 A3024 RMK AO2 SLP241 T00940056 58001
Loading
Personal Weather Stations






























Interactive Weather Map
Tropical Storm Tracking
New forecast layout! Learn more

10-Day Weather Forecast

Advertisements
Track Severe Weather on mobile